Morehead City, NC

8:41 AM EDT on June 02, 2015 (GMT -0400)
MoreheadCityWeather.Com | | Change Station
CLOSE
Current Station
Personal Weather Station
Location: Morehead City, NC
Elevation: 10 ft
Nearby Weather Stations

Elev 10 ft 34.73 °N, 76.75 °W | Updated 11 seconds ago

Partly Cloudy
Partly Cloudy
80.2 °F
Feels Like 84 °F
N
4.7
Wind Variable Wind from SW
Gusts 6.8 mph

Today
High -- | Low -- °F
--% Chance of Precip.
Yesterday
High -- | Low -- °F
Precip. -- in
5:54 AM 8:15 PM
Full, 100% visible
Pressure 30.03 in
Visibility 10.0 miles
Clouds Scattered Clouds 1700 ft
Heat Index 84 °F
Dew Point 70 °F
Humidity 72%
Rainfall 0.00 in
Snow Depth Not available.
UV 2 out of 12
Pollen 6.10 out of 12
Air Quality Not available.
Flu Activity No Activity
METAR KMRH 021158Z AUTO 20009KT 10SM SCT017 25/22 A3003 RMK AO2 SLP168 T02500217 10256 20239 53005 TSNO

More Conditions Fewer Conditions

Pressure 30.03 in
Visibility 10.0 miles
Clouds Scattered Clouds 1700 ft
Heat Index 84 °F
Dew Point 70 °F
Humidity 72%
Rainfall 0.00 in
Snow Depth Not available.
UV 2 out of 12
Pollen 6.10 out of 12
Air Quality Not available.
Flu Activity No Activity
METAR KMRH 021158Z AUTO 20009KT 10SM SCT017 25/22 A3003 RMK AO2 SLP168 T02500217 10256 20239 53005 TSNO

More Conditions Fewer Conditions

10-Day Weather Forecast

Almanac

Astronomy

Jun. 02, 2015 Rise Set
Actual Time
Civil Twilight
Nautical Twilight
Astronomical Twilight
Moon
Length of Visible Light
Length of Day
Tomorrow will be .
, % of the Moon is Illuminated

Today's Extremes

State Highs State Lows

Community

WunderPhotos

Upload Photos

1,825,892 photos uploaded!

WunderBlogs® & News

Nearby

Air Quality

  Air Quality AQ Index Pollutant
Not available.

Snow Depth

Station Depth Elevation

Earthquake Activity

City Distance Mag. Time & Date
Minimum magnitude displayed is 2.5.

Coastal Water Temperatures

Place Temperature

Stations

Nearby Weather Stations

Station Location Temp. Windchill Dew Point Humidity Wind Precip. Elev Updated Type